Time;durP1;ratioP1;P1;durP2;ratioP2;P2;SDS_P1;SDS_P2;PMS_P1;PMS_P2;Temp;Humidity;BMP_temperature;BMP_pressure;BME280_temperature;BME280_humidity;BME280_pressure;Samples;Min_cycle;Max_cycle;Signal;HPM_P1;HPM_P2
2021/01/18 00:00:56;;;;;;;35.63;16.30;;;;;;;-2.54;100.00;98634.39;3689191;80;44488;-20
2021/01/18 00:06:02;;;;;;;34.70;16.47;;;;;;;-2.55;100.00;98634.44;3702925;80;44042;-20
2021/01/18 00:11:07;;;;;;;36.47;17.50;;;;;;;-2.62;100.00;98639.16;3695672;80;44200;-20
2021/01/18 00:16:14;;;;;;;33.83;17.10;;;;;;;-2.66;100.00;98628.37;3702055;80;43313;-21
2021/01/18 00:21:21;;;;;;;34.50;17.23;;;;;;;-2.64;100.00;98629.14;3680387;79;44156;-20
2021/01/18 00:26:26;;;;;;;38.73;17.83;;;;;;;-2.68;100.00;98629.75;3699249;80;44453;-20
2021/01/18 00:31:32;;;;;;;33.60;16.70;;;;;;;-2.69;100.00;98624.56;3700210;80;44031;-18
2021/01/18 00:36:39;;;;;;;35.73;17.73;;;;;;;-2.67;100.00;98621.39;3703015;80;44116;-20
2021/01/18 00:41:45;;;;;;;34.57;17.33;;;;;;;-2.76;100.00;98617.41;3668482;80;43354;-22
2021/01/18 00:46:51;;;;;;;39.10;17.47;;;;;;;-2.76;100.00;98608.66;3686561;80;44089;-19
2021/01/18 00:51:57;;;;;;;37.83;18.03;;;;;;;-2.74;100.00;98608.09;3598342;81;44024;-19
2021/01/18 00:57:03;;;;;;;35.70;18.20;;;;;;;-2.74;100.00;98606.33;3697791;80;43330;-19
2021/01/18 01:02:10;;;;;;;38.13;18.87;;;;;;;-2.76;100.00;98604.70;3692345;80;26392;-19
2021/01/18 01:07:17;;;;;;;38.33;17.97;;;;;;;-2.77;100.00;98604.30;3697786;80;43384;-20
2021/01/18 01:12:24;;;;;;;39.93;18.20;;;;;;;-2.77;100.00;98602.98;3644857;80;44039;-19
2021/01/18 01:17:29;;;;;;;39.07;18.90;;;;;;;-2.79;100.00;98607.86;3635439;81;44182;-20
2021/01/18 01:22:36;;;;;;;42.37;18.97;;;;;;;-2.74;100.00;98616.00;3692708;79;43733;-21
2021/01/18 01:27:43;;;;;;;40.60;19.27;;;;;;;-2.69;100.00;98610.90;3697814;80;44093;-21
2021/01/18 01:32:51;;;;;;;41.00;18.93;;;;;;;-2.68;100.00;98617.05;3685593;80;44037;-20
2021/01/18 01:37:58;;;;;;;42.47;19.20;;;;;;;-2.63;100.00;98615.02;3653454;80;44515;-21
2021/01/18 01:43:04;;;;;;;41.63;18.60;;;;;;;-2.62;100.00;98619.85;3697615;80;44082;-20
2021/01/18 01:48:11;;;;;;;38.90;18.00;;;;;;;-2.57;100.00;98609.91;3696628;80;43717;-21
2021/01/18 01:53:20;;;;;;;43.27;18.23;;;;;;;-2.53;100.00;98608.85;3636488;80;43007;-21
2021/01/18 01:58:29;;;;;;;38.53;18.77;;;;;;;-2.50;100.00;98606.91;3689559;79;43756;-21
2021/01/18 02:03:40;;;;;;;38.33;18.33;;;;;;;-2.45;100.00;98605.84;3643549;80;44100;-21
2021/01/18 02:08:46;;;;;;;42.37;18.83;;;;;;;-2.40;100.00;98603.82;3644182;80;42766;-21
2021/01/18 02:14:20;;;;;;;39.90;19.20;;;;;;;-2.35;100.00;98604.46;3639617;80;44078;-21
2021/01/18 02:19:47;;;;;;;42.63;18.83;;;;;;;-2.32;100.00;98601.20;3652340;80;44054;-20
2021/01/18 02:25:18;;;;;;;40.73;19.13;;;;;;;-2.29;100.00;98609.42;3697718;80;44095;-21
2021/01/18 02:30:54;;;;;;;41.03;19.87;;;;;;;-2.24;100.00;98615.34;3683941;79;42997;-20
2021/01/18 02:36:08;;;;;;;38.83;18.30;;;;;;;-2.22;100.00;98621.41;3650231;80;44441;-20
2021/01/18 02:41:19;;;;;;;39.53;20.43;;;;;;;-2.23;100.00;98617.05;3675859;80;44421;-20
2021/01/18 02:46:27;;;;;;;41.87;18.80;;;;;;;-2.17;100.00;98622.49;3695409;80;44418;-20
2021/01/18 02:51:37;;;;;;;42.10;19.10;;;;;;;-2.13;100.00;98620.55;3655508;80;44046;-20
2021/01/18 02:56:45;;;;;;;43.93;19.50;;;;;;;-2.12;100.00;98611.70;3635399;81;43410;-20
2021/01/18 03:02:15;;;;;;;38.87;18.40;;;;;;;-2.08;100.00;98613.27;3679432;79;44078;-20
2021/01/18 03:07:26;;;;;;;46.50;20.17;;;;;;;-2.06;100.00;98610.93;3675593;80;43399;-19
2021/01/18 03:12:38;;;;;;;41.73;19.17;;;;;;;-1.99;100.00;98614.13;3622387;81;43701;-19
2021/01/18 03:17:45;;;;;;;44.53;19.67;;;;;;;-2.00;100.00;98619.01;3601323;82;43376;-20
2021/01/18 03:22:52;;;;;;;41.37;18.60;;;;;;;-1.96;100.00;98618.38;3658967;81;43730;-19
2021/01/18 03:27:58;;;;;;;43.13;20.33;;;;;;;-1.93;100.00;98615.59;3661941;81;43670;-19
2021/01/18 03:33:04;;;;;;;44.53;19.73;;;;;;;-1.93;100.00;98614.27;3687728;79;44034;-19
2021/01/18 03:38:10;;;;;;;47.70;21.63;;;;;;;-1.90;100.00;98615.45;3673379;79;44169;-20
2021/01/18 03:43:17;;;;;;;47.07;21.50;;;;;;;-1.91;100.00;98611.94;3661236;81;43282;-18
2021/01/18 03:48:23;;;;;;;50.57;21.17;;;;;;;-1.89;100.00;98613.20;3658583;81;44054;-18
2021/01/18 03:53:29;;;;;;;52.80;22.23;;;;;;;-1.83;100.00;98615.99;3601595;81;43795;-18
2021/01/18 03:58:34;;;;;;;49.97;21.47;;;;;;;-1.77;100.00;98614.34;3605813;81;44043;-17
2021/01/18 04:03:41;;;;;;;52.03;21.47;;;;;;;-1.70;100.00;98607.80;3661400;79;44106;-17
2021/01/18 04:08:47;;;;;;;45.70;20.50;;;;;;;-1.61;100.00;98614.40;3670031;80;44008;-17
2021/01/18 04:13:54;;;;;;;45.13;19.00;;;;;;;-1.43;100.00;98612.58;3597176;81;44097;-18
2021/01/18 04:18:59;;;;;;;43.37;17.10;;;;;;;-1.25;100.00;98618.23;3602019;81;43424;-18
2021/01/18 04:24:07;;;;;;;34.97;16.07;;;;;;;-0.96;100.00;98614.47;3651848;81;43747;-18
2021/01/18 04:29:13;;;;;;;38.73;16.80;;;;;;;-0.73;100.00;98617.63;3639058;81;43690;-18
2021/01/18 04:34:19;;;;;;;35.63;16.70;;;;;;;-0.59;100.00;98622.17;3647832;81;43480;-18
2021/01/18 04:39:25;;;;;;;37.50;16.57;;;;;;;-0.53;100.00;98619.17;3646472;80;44520;-18
2021/01/18 04:44:30;;;;;;;34.87;16.00;;;;;;;-0.51;100.00;98617.75;3592112;81;43393;-18
2021/01/18 04:49:37;;;;;;;34.23;15.97;;;;;;;-0.47;100.00;98627.23;3609440;81;44084;-19
2021/01/18 04:54:46;;;;;;;35.97;15.67;;;;;;;-0.45;100.00;98629.78;3651757;81;43469;-18
2021/01/18 04:59:53;;;;;;;32.10;15.30;;;;;;;-0.36;100.00;98630.13;3631834;81;43290;-18
2021/01/18 05:05:01;;;;;;;31.70;14.67;;;;;;;-0.26;100.00;98628.27;3622044;81;44026;-19
2021/01/18 05:10:09;;;;;;;31.70;14.53;;;;;;;-0.19;100.00;98627.00;3693017;79;44113;-18
2021/01/18 05:15:16;;;;;;;31.13;13.27;;;;;;;-0.09;100.00;98632.59;3640971;81;43437;-19
2021/01/18 05:20:22;;;;;;;34.00;14.60;;;;;;;0.01;100.00;98636.89;3668663;80;43685;-18
2021/01/18 05:25:30;;;;;;;30.10;13.43;;;;;;;0.06;100.00;98634.36;3703171;80;43996;-19
2021/01/18 05:30:38;;;;;;;30.40;13.13;;;;;;;0.13;100.00;98641.48;3703426;80;44085;-19
2021/01/18 05:35:47;;;;;;;25.10;12.47;;;;;;;0.27;100.00;98643.30;3685073;80;43696;-18
2021/01/18 05:40:53;;;;;;;22.70;11.17;;;;;;;0.29;100.00;98647.56;3676830;79;43383;-18
2021/01/18 05:46:06;;;;;;;27.10;13.03;;;;;;;0.38;100.00;98654.13;3703288;80;44456;-18
2021/01/18 05:51:12;;;;;;;26.63;11.50;;;;;;;0.44;100.00;98656.88;3666331;80;43726;-18
2021/01/18 05:56:20;;;;;;;23.73;11.90;;;;;;;0.48;100.00;98662.84;3673554;80;43345;-18
2021/01/18 06:01:39;;;;;;;22.40;9.77;;;;;;;0.50;100.00;98663.61;3666177;80;43681;-19
2021/01/18 06:06:54;;;;;;;22.53;10.97;;;;;;;0.57;100.00;98663.65;3674728;80;44500;-19
2021/01/18 06:12:04;;;;;;;19.33;9.93;;;;;;;0.65;100.00;98668.49;3650631;80;42866;-19
2021/01/18 06:17:10;;;;;;;23.20;10.13;;;;;;;0.69;100.00;98675.30;3661804;79;43620;-19
2021/01/18 06:22:25;;;;;;;18.23;8.37;;;;;;;0.77;100.00;98665.06;3651831;81;44196;-19
2021/01/18 06:27:34;;;;;;;21.83;9.60;;;;;;;0.85;100.00;98669.45;3620921;81;43674;-19
2021/01/18 06:32:40;;;;;;;20.50;8.17;;;;;;;0.86;100.00;98671.62;3651908;81;43402;-19
2021/01/18 06:37:46;;;;;;;20.50;8.20;;;;;;;0.86;100.00;98677.80;3603326;81;44213;-19
2021/01/18 06:42:54;;;;;;;17.37;7.93;;;;;;;0.88;100.00;98683.83;3631442;81;43336;-19
2021/01/18 06:48:01;;;;;;;18.80;7.83;;;;;;;0.88;100.00;98690.95;3694410;80;44082;-19
2021/01/18 06:53:20;;;;;;;21.50;7.93;;;;;;;0.86;100.00;98695.03;3630215;80;44067;-19
2021/01/18 06:58:35;;;;;;;18.37;8.47;;;;;;;0.85;100.00;98697.30;3606015;81;44400;-19
2021/01/18 07:03:43;;;;;;;17.30;7.80;;;;;;;0.88;100.00;98707.70;3632307;81;44694;-19
2021/01/18 07:08:52;;;;;;;21.53;7.90;;;;;;;0.90;100.00;98719.08;3628283;80;43480;-19
2021/01/18 07:13:59;;;;;;;19.10;7.67;;;;;;;0.92;100.00;98725.64;3708997;80;43427;-19
2021/01/18 07:19:06;;;;;;;18.90;7.73;;;;;;;0.93;100.00;98731.33;3712415;79;44282;-19
2021/01/18 07:24:15;;;;;;;17.37;7.27;;;;;;;0.94;100.00;98738.34;3694456;80;44082;-20
2021/01/18 07:29:25;;;;;;;18.80;6.63;;;;;;;0.99;100.00;98739.39;3700717;80;44022;-19
2021/01/18 07:34:31;;;;;;;16.27;7.00;;;;;;;1.12;100.00;98739.48;3702956;80;43996;-19
2021/01/18 07:39:39;;;;;;;18.93;7.37;;;;;;;1.15;100.00;98740.14;3686064;80;43673;-20
2021/01/18 07:44:45;;;;;;;13.43;5.77;;;;;;;1.15;100.00;98746.78;3641303;80;43715;-20
2021/01/18 07:49:51;;;;;;;15.03;6.50;;;;;;;1.17;100.00;98740.91;3665144;79;43690;-20
2021/01/18 07:55:00;;;;;;;13.97;5.80;;;;;;;1.22;100.00;98754.77;3702271;80;44091;-19
2021/01/18 08:00:40;;;;;;;9.97;4.63;;;;;;;1.27;100.00;98750.95;3701273;80;43687;-20
2021/01/18 08:05:46;;;;;;;18.40;5.07;;;;;;;1.33;100.00;98754.58;3700437;80;45046;-19
2021/01/18 08:10:55;;;;;;;13.73;5.03;;;;;;;1.38;100.00;98752.47;3655175;80;43183;-20
2021/01/18 08:16:22;;;;;;;10.07;4.17;;;;;;;1.44;100.00;98749.45;3663296;80;43219;-20
2021/01/18 08:22:13;;;;;;;12.03;5.03;;;;;;;1.49;100.00;98755.80;3641392;80;43992;-21
2021/01/18 08:27:39;;;;;;;12.70;3.87;;;;;;;1.50;100.00;98749.06;3651240;81;43683;-20
2021/01/18 08:32:53;;;;;;;9.87;3.00;;;;;;;1.54;100.00;98748.39;3608861;81;44028;-21
2021/01/18 08:38:02;;;;;;;10.93;3.57;;;;;;;1.54;100.00;98752.37;3593543;82;44535;-21
2021/01/18 08:43:09;;;;;;;11.80;4.07;;;;;;;1.52;100.00;98755.62;3614476;81;44055;-21
2021/01/18 08:48:18;;;;;;;9.77;3.93;;;;;;;1.52;100.00;98751.16;3628193;81;43820;-21
2021/01/18 08:53:32;;;;;;;13.87;4.33;;;;;;;1.53;100.00;98751.53;3651848;80;43677;-22
2021/01/18 08:58:43;;;;;;;10.27;3.90;;;;;;;1.58;100.00;98760.53;3643088;81;43084;-22
2021/01/18 09:03:58;;;;;;;6.53;2.77;;;;;;;1.65;100.00;98766.31;3625947;81;44043;-22
2021/01/18 09:09:05;;;;;;;8.20;3.27;;;;;;;1.67;100.00;98781.20;3653889;80;43406;-22
2021/01/18 09:14:12;;;;;;;9.90;3.10;;;;;;;1.80;100.00;98760.05;3642234;80;43368;-22
2021/01/18 09:19:18;;;;;;;11.80;3.90;;;;;;;1.84;100.00;98759.37;3643778;80;44043;-22
2021/01/18 09:24:25;;;;;;;12.43;4.10;;;;;;;1.80;100.00;98756.06;3693611;80;44062;-22
2021/01/18 09:29:30;;;;;;;10.10;3.63;;;;;;;1.88;100.00;98749.39;3742626;79;43729;-21
2021/01/18 09:34:38;;;;;;;11.13;4.00;;;;;;;1.87;100.00;98754.33;3664928;80;44741;-21
2021/01/18 09:39:46;;;;;;;9.60;3.53;;;;;;;1.92;100.00;98758.89;3667324;80;43695;-21
2021/01/18 09:44:56;;;;;;;11.27;4.93;;;;;;;1.94;100.00;98751.67;3703062;80;44053;-21
2021/01/18 09:50:24;;;;;;;10.30;4.10;;;;;;;1.96;100.00;98759.05;3692547;80;44074;-20
2021/01/18 09:55:35;;;;;;;9.93;4.00;;;;;;;1.97;100.00;98767.40;3643944;81;44011;-20
2021/01/18 10:00:45;;;;;;;8.27;3.60;;;;;;;2.00;100.00;98772.53;3685073;79;44258;-22
2021/01/18 10:05:54;;;;;;;10.83;4.07;;;;;;;2.05;100.00;98767.78;3703054;80;43288;-20
2021/01/18 10:11:00;;;;;;;10.23;3.93;;;;;;;2.10;100.00;98766.99;3640770;80;44095;-20
2021/01/18 10:16:11;;;;;;;11.10;4.50;;;;;;;2.10;100.00;98765.66;3591600;82;44051;-21
2021/01/18 10:21:19;;;;;;;11.87;4.20;;;;;;;2.03;100.00;98767.02;3625503;81;43723;-18
2021/01/18 10:26:28;;;;;;;10.00;4.00;;;;;;;1.97;100.00;98771.39;3622037;81;43464;-18
2021/01/18 10:31:38;;;;;;;15.90;6.00;;;;;;;1.96;100.00;98768.34;3633446;80;43015;-18
2021/01/18 10:36:46;;;;;;;17.20;5.90;;;;;;;2.01;100.00;98762.27;3652205;81;43106;-18
2021/01/18 10:41:57;;;;;;;8.47;4.07;;;;;;;1.96;100.00;98762.58;3620279;81;43262;-18
2021/01/18 10:47:09;;;;;;;8.60;4.33;;;;;;;1.88;100.00;98765.33;3645609;81;43569;-18
2021/01/18 10:52:17;;;;;;;9.90;4.43;;;;;;;1.93;100.00;98756.61;3640940;81;43511;-18
2021/01/18 10:57:24;;;;;;;11.03;4.50;;;;;;;2.07;100.00;98759.70;3651938;81;43375;-18
2021/01/18 11:02:32;;;;;;;9.27;4.70;;;;;;;2.13;100.00;98755.30;3621660;80;43694;-18
2021/01/18 11:07:39;;;;;;;11.23;5.37;;;;;;;2.28;100.00;98750.32;3599743;81;44511;-18
2021/01/18 11:12:47;;;;;;;13.40;5.97;;;;;;;2.40;100.00;98757.11;3630875;81;43616;-18
2021/01/18 11:17:54;;;;;;;11.17;5.33;;;;;;;2.35;100.00;98753.44;3618027;81;43734;-17
2021/01/18 11:23:00;;;;;;;13.43;5.43;;;;;;;2.39;100.00;98750.95;3651852;81;44019;-17
2021/01/18 11:28:11;;;;;;;11.67;5.57;;;;;;;2.43;100.00;98744.95;3652271;81;43730;-17
2021/01/18 11:33:17;;;;;;;11.00;5.33;;;;;;;2.48;100.00;98730.86;3626582;80;43679;-17
2021/01/18 11:38:23;;;;;;;12.77;5.47;;;;;;;2.56;100.00;98731.22;3638175;80;44035;-17
2021/01/18 11:43:31;;;;;;;11.70;5.60;;;;;;;2.68;100.00;98730.85;3649583;81;44430;-17
2021/01/18 11:48:37;;;;;;;9.97;5.17;;;;;;;2.75;100.00;98719.32;3593887;81;44079;-17
2021/01/18 11:53:43;;;;;;;7.17;3.80;;;;;;;2.77;100.00;98708.94;3631471;81;44039;-17
2021/01/18 11:58:49;;;;;;;8.80;4.57;;;;;;;2.74;100.00;98715.83;3617416;81;44091;-18
2021/01/18 12:03:57;;;;;;;7.67;4.13;;;;;;;2.75;100.00;98702.89;3635919;81;42938;-18
2021/01/18 12:09:04;;;;;;;9.97;4.00;;;;;;;2.81;100.00;98703.41;3621437;81;44566;-18
2021/01/18 12:14:10;;;;;;;6.97;3.70;;;;;;;2.80;100.00;98704.38;3617692;80;43362;-18
2021/01/18 12:19:17;;;;;;;7.83;3.63;;;;;;;2.83;100.00;98701.02;3624578;81;42967;-18
2021/01/18 12:24:24;;;;;;;7.47;3.80;;;;;;;2.85;100.00;98699.11;3591773;81;43685;-18
2021/01/18 12:29:31;;;;;;;5.67;3.70;;;;;;;2.82;100.00;98686.49;3606245;81;44038;-18
2021/01/18 12:34:37;;;;;;;6.27;3.30;;;;;;;2.92;100.00;98684.90;3651730;81;43302;-18
2021/01/18 12:39:44;;;;;;;6.27;3.13;;;;;;;2.83;100.00;98685.55;3641503;80;43492;-18
2021/01/18 12:44:51;;;;;;;7.83;3.30;;;;;;;2.82;100.00;98683.83;3642635;81;43678;-18
2021/01/18 12:49:57;;;;;;;7.37;3.27;;;;;;;2.78;100.00;98676.55;3650885;81;43700;-17
2021/01/18 12:55:04;;;;;;;5.07;3.27;;;;;;;2.78;100.00;98668.08;3651692;81;43190;-18
2021/01/18 13:00:12;;;;;;;5.53;3.30;;;;;;;2.71;100.00;98648.19;3636687;81;43239;-18
2021/01/18 13:05:19;;;;;;;5.30;3.33;;;;;;;2.69;100.00;98642.60;3651590;81;43109;-18
2021/01/18 13:10:28;;;;;;;7.63;3.77;;;;;;;2.71;100.00;98640.20;3647858;79;44019;-18
2021/01/18 13:15:35;;;;;;;6.97;3.07;;;;;;;2.71;100.00;98636.67;3637503;80;44015;-17
2021/01/18 13:20:41;;;;;;;5.80;3.47;;;;;;;2.62;100.00;98627.55;3622100;81;44015;-18
2021/01/18 13:25:48;;;;;;;9.13;3.80;;;;;;;2.63;100.00;98625.25;3598543;81;44113;-18
2021/01/18 13:30:54;;;;;;;8.70;4.23;;;;;;;2.62;100.00;98636.85;3638039;81;43695;-18
2021/01/18 13:36:01;;;;;;;9.60;4.37;;;;;;;2.57;100.00;98621.21;3649895;81;44186;-17
2021/01/18 13:41:12;;;;;;;7.87;3.90;;;;;;;2.60;100.00;98610.83;3640770;81;44026;-18
2021/01/18 13:46:20;;;;;;;8.87;4.53;;;;;;;2.62;100.00;98618.23;3641367;80;43673;-18
2021/01/18 13:51:29;;;;;;;5.07;3.77;;;;;;;2.62;100.00;98613.75;3624757;81;44008;-18
2021/01/18 13:56:35;;;;;;;7.50;4.20;;;;;;;2.60;100.00;98610.83;3650623;81;43988;-17
2021/01/18 14:01:41;;;;;;;6.83;3.80;;;;;;;2.61;100.00;98613.87;3634465;81;44042;-17
2021/01/18 14:06:48;;;;;;;7.27;4.17;;;;;;;2.61;100.00;98615.20;3651642;81;44033;-21
2021/01/18 14:11:54;;;;;;;5.40;3.73;;;;;;;2.65;100.00;98610.02;3615143;81;43121;-16
2021/01/18 14:17:01;;;;;;;6.20;4.20;;;;;;;2.65;100.00;98616.66;3614678;80;44027;-16
2021/01/18 14:22:08;;;;;;;7.10;4.17;;;;;;;2.56;100.00;98612.86;3623029;81;44091;-15
2021/01/18 14:27:15;;;;;;;9.50;4.20;;;;;;;2.56;100.00;98605.34;3651594;81;43019;-16
2021/01/18 14:32:22;;;;;;;7.33;4.23;;;;;;;2.55;100.00;98602.30;3643812;81;43406;-16
2021/01/18 14:37:29;;;;;;;10.17;4.97;;;;;;;2.64;100.00;98618.98;3593775;82;43357;-18
2021/01/18 14:42:39;;;;;;;9.80;5.40;;;;;;;2.55;100.00;98614.27;3643698;81;43444;-17
2021/01/18 14:47:45;;;;;;;10.63;5.43;;;;;;;2.46;100.00;98615.78;3668501;80;44125;-17
2021/01/18 14:52:51;;;;;;;13.80;6.43;;;;;;;2.37;100.00;98623.91;3626413;80;44497;-18
2021/01/18 14:57:58;;;;;;;8.20;4.63;;;;;;;2.31;100.00;98617.66;3652321;81;44048;-17
2021/01/18 15:03:04;;;;;;;7.47;4.00;;;;;;;2.29;100.00;98608.95;3595690;81;44044;-17
2021/01/18 15:08:11;;;;;;;8.90;4.27;;;;;;;2.30;100.00;98616.81;3631456;81;43694;-17
2021/01/18 15:13:17;;;;;;;9.00;4.53;;;;;;;2.39;100.00;98603.38;3645377;80;43437;-17
2021/01/18 15:18:23;;;;;;;8.73;5.33;;;;;;;2.37;100.00;98610.61;3685438;79;43406;-17
2021/01/18 15:23:30;;;;;;;10.03;6.00;;;;;;;2.34;100.00;98607.31;3671962;80;44669;-16
2021/01/18 15:28:36;;;;;;;13.53;7.93;;;;;;;2.28;100.00;98608.58;3683836;80;44096;-16
2021/01/18 15:33:44;;;;;;;11.47;6.53;;;;;;;2.19;100.00;98610.50;3669200;80;44503;-17
2021/01/18 15:38:50;;;;;;;10.50;5.53;;;;;;;2.13;100.00;98613.97;3646221;80;42815;-18
2021/01/18 15:43:58;;;;;;;7.93;5.37;;;;;;;2.04;100.00;98607.08;3675744;80;43685;-17
2021/01/18 15:49:03;;;;;;;10.67;5.30;;;;;;;1.97;100.00;98598.20;3703186;80;42964;-16
2021/01/18 15:54:10;;;;;;;10.07;6.17;;;;;;;1.95;100.00;98609.87;3685310;79;44050;-17
2021/01/18 15:59:15;;;;;;;16.23;6.70;;;;;;;1.96;100.00;98617.76;3683668;80;43335;-16
2021/01/18 16:04:21;;;;;;;8.97;6.00;;;;;;;1.98;100.00;98612.33;3702546;80;43750;-17
2021/01/18 16:09:27;;;;;;;12.80;6.40;;;;;;;1.84;100.00;98612.77;3683772;80;44503;-16
2021/01/18 16:14:33;;;;;;;11.07;6.20;;;;;;;1.78;100.00;98615.84;3663567;80;44089;-16
2021/01/18 16:19:38;;;;;;;9.33;5.87;;;;;;;1.67;100.00;98613.03;3680030;80;44448;-17
2021/01/18 16:24:46;;;;;;;8.87;4.63;;;;;;;1.65;100.00;98618.91;3687897;79;44070;-17
2021/01/18 16:29:52;;;;;;;13.07;6.13;;;;;;;1.53;100.00;98617.44;3695658;80;44109;-17
2021/01/18 16:35:00;;;;;;;11.50;5.30;;;;;;;1.51;100.00;98611.86;3688528;80;43432;-18
2021/01/18 16:40:07;;;;;;;9.70;5.60;;;;;;;1.41;100.00;98610.26;3516202;83;44007;-18
2021/01/18 16:45:15;;;;;;;9.17;5.20;;;;;;;1.35;100.00;98608.02;3670668;80;44432;-18
2021/01/18 16:50:21;;;;;;;9.37;5.70;;;;;;;1.27;100.00;98610.28;3663336;80;44406;-20
2021/01/18 16:55:27;;;;;;;10.10;5.70;;;;;;;1.26;100.00;98609.91;3693209;79;44469;-20
2021/01/18 17:00:33;;;;;;;11.40;5.60;;;;;;;1.21;100.00;98603.11;3691089;80;44057;-19
2021/01/18 17:05:39;;;;;;;11.10;5.27;;;;;;;1.18;100.00;98604.62;3698721;80;43754;-19
2021/01/18 17:10:45;;;;;;;13.30;6.77;;;;;;;1.10;100.00;98606.05;3669734;80;43718;-19
2021/01/18 17:15:51;;;;;;;10.57;6.50;;;;;;;1.12;100.00;98604.99;3610173;80;44074;-19
2021/01/18 17:20:57;;;;;;;11.87;6.93;;;;;;;1.03;100.00;98604.25;3621970;81;43722;-19
2021/01/18 17:26:03;;;;;;;12.73;6.43;;;;;;;1.07;100.00;98605.77;3652290;81;43451;-19
2021/01/18 17:31:10;;;;;;;13.90;7.60;;;;;;;1.01;100.00;98597.73;3666623;80;44557;-19
2021/01/18 17:36:17;;;;;;;13.97;7.60;;;;;;;0.99;100.00;98597.45;3631914;81;43429;-19
2021/01/18 17:41:24;;;;;;;14.03;7.07;;;;;;;0.99;100.00;98592.98;3629482;81;43353;-19
2021/01/18 17:46:31;;;;;;;11.17;6.83;;;;;;;0.97;100.00;98592.72;3597167;81;43685;-19
2021/01/18 17:51:37;;;;;;;15.43;6.33;;;;;;;0.96;100.00;98597.64;3622742;81;43461;-19
2021/01/18 17:56:43;;;;;;;10.90;6.33;;;;;;;1.00;100.00;98587.22;3652510;81;44062;-19
2021/01/18 18:01:50;;;;;;;11.57;7.17;;;;;;;1.02;100.00;98593.26;3660150;80;44404;-19
2021/01/18 18:06:59;;;;;;;14.60;8.00;;;;;;;0.95;100.00;98589.30;3652913;81;44544;-19
2021/01/18 18:12:06;;;;;;;11.10;7.03;;;;;;;1.02;100.00;98582.64;3612789;81;43671;-19
2021/01/18 18:17:12;;;;;;;14.07;9.67;;;;;;;1.03;100.00;98567.11;3641280;81;43334;-19
2021/01/18 18:22:18;;;;;;;13.13;7.23;;;;;;;1.06;100.00;98573.55;3687601;80;44058;-19
2021/01/18 18:27:24;;;;;;;11.07;7.23;;;;;;;1.07;100.00;98569.95;3672811;80;43086;-19
2021/01/18 18:32:30;;;;;;;11.37;6.47;;;;;;;1.06;100.00;98572.23;3705868;79;44075;-19
2021/01/18 18:37:36;;;;;;;8.13;5.87;;;;;;;1.07;100.00;98572.61;3709325;79;44085;-19
2021/01/18 18:42:48;;;;;;;11.37;7.77;;;;;;;1.13;100.00;98574.85;3693927;79;44072;-19
2021/01/18 18:47:54;;;;;;;10.13;6.17;;;;;;;1.12;100.00;98582.92;3682770;80;44092;-19
2021/01/18 18:52:59;;;;;;;10.00;5.60;;;;;;;1.15;100.00;98575.62;3700384;80;43043;-20
2021/01/18 18:58:05;;;;;;;8.37;4.87;;;;;;;1.16;100.00;98569.36;3687321;80;44054;-20
2021/01/18 19:03:12;;;;;;;7.93;4.57;;;;;;;1.18;100.00;98571.45;3665557;80;43401;-20
2021/01/18 19:08:20;;;;;;;6.07;4.50;;;;;;;1.17;100.00;98572.39;3680332;79;27837;-20
2021/01/18 19:13:27;;;;;;;7.63;5.10;;;;;;;1.18;100.00;98570.13;3666973;80;43721;-20
2021/01/18 19:18:33;;;;;;;8.10;4.30;;;;;;;1.18;100.00;98566.59;3650003;80;43256;-19
2021/01/18 19:23:39;;;;;;;8.27;4.50;;;;;;;1.13;100.00;98560.75;3679534;80;43605;-19
2021/01/18 19:28:46;;;;;;;7.07;4.20;;;;;;;1.11;100.00;98559.53;3680739;80;43294;-19
2021/01/18 19:33:52;;;;;;;8.03;5.27;;;;;;;1.11;100.00;98555.55;3680961;79;43544;-19
2021/01/18 19:38:59;;;;;;;7.53;6.27;;;;;;;1.07;100.00;98558.02;3681649;79;44101;-19
2021/01/18 19:44:08;;;;;;;7.73;4.90;;;;;;;1.11;100.00;98558.66;3650077;80;43408;-19
2021/01/18 19:49:15;;;;;;;6.37;4.53;;;;;;;1.10;100.00;98563.59;3630849;80;44043;-19
2021/01/18 19:54:23;;;;;;;6.80;5.10;;;;;;;1.09;100.00;98556.12;3667531;80;43715;-19
2021/01/18 19:59:28;;;;;;;6.47;4.50;;;;;;;1.10;100.00;98560.94;3665344;80;43361;-19
2021/01/18 20:04:35;;;;;;;8.50;4.33;;;;;;;1.13;100.00;98564.73;3676775;80;43300;-19
2021/01/18 20:09:41;;;;;;;6.30;4.07;;;;;;;1.14;100.00;98555.33;3672173;79;44130;-19
2021/01/18 20:14:47;;;;;;;10.30;5.70;;;;;;;1.15;100.00;98555.71;3630288;81;44058;-20
2021/01/18 20:19:53;;;;;;;6.80;4.67;;;;;;;1.23;100.00;98560.05;3506814;83;43949;-20
2021/01/18 20:24:59;;;;;;;8.00;5.03;;;;;;;1.43;100.00;98554.40;3665260;80;43711;-21
2021/01/18 20:30:09;;;;;;;6.30;4.47;;;;;;;1.38;100.00;98558.68;3645445;80;43525;-20
2021/01/18 20:35:16;;;;;;;8.17;5.30;;;;;;;1.49;100.00;98551.36;3678734;80;43669;-20
2021/01/18 20:40:22;;;;;;;6.33;4.30;;;;;;;1.44;100.00;98554.31;3665202;79;43698;-19
2021/01/18 20:45:31;;;;;;;6.67;5.40;;;;;;;1.33;100.00;98556.33;3687782;79;43673;-19
2021/01/18 20:50:37;;;;;;;8.50;5.77;;;;;;;1.29;100.00;98553.52;3669159;80;43579;-20
2021/01/18 20:55:43;;;;;;;8.17;5.23;;;;;;;1.28;100.00;98539.87;3656176;80;44011;-20
2021/01/18 21:00:49;;;;;;;8.20;5.70;;;;;;;1.25;100.00;98532.55;3667632;80;43306;-20
2021/01/18 21:05:55;;;;;;;10.30;5.40;;;;;;;1.27;100.00;98528.00;3674203;80;44079;-20
2021/01/18 21:11:04;;;;;;;10.87;6.43;;;;;;;1.19;100.00;98528.04;3669902;80;44094;-20
2021/01/18 21:16:09;;;;;;;10.57;6.50;;;;;;;1.22;100.00;98533.16;3654541;79;43061;-20
2021/01/18 21:21:21;;;;;;;10.80;5.73;;;;;;;1.16;100.00;98525.58;3658938;80;43357;-20
2021/01/18 21:26:36;;;;;;;6.80;4.80;;;;;;;1.18;100.00;98504.23;3693453;80;44397;-20
2021/01/18 21:31:45;;;;;;;11.40;7.70;;;;;;;1.18;100.00;98510.88;3647057;80;43679;-15
2021/01/18 21:36:55;;;;;;;9.97;6.50;;;;;;;1.21;100.00;98512.88;3697944;80;43689;-15
2021/01/18 21:42:02;;;;;;;10.43;6.77;;;;;;;1.31;100.00;98509.61;3657214;80;44433;-15
2021/01/18 21:47:08;;;;;;;8.43;6.30;;;;;;;1.37;100.00;98503.88;3721930;79;43490;-21
2021/01/18 21:52:14;;;;;;;8.13;5.13;;;;;;;1.41;100.00;98501.91;3670847;79;44058;-15
2021/01/18 21:57:21;;;;;;;8.33;5.70;;;;;;;1.40;100.00;98508.16;3698218;80;43636;-16
2021/01/18 22:02:27;;;;;;;8.40;4.97;;;;;;;1.46;100.00;98503.30;3649604;80;44063;-15
2021/01/18 22:07:34;;;;;;;8.83;5.10;;;;;;;1.50;100.00;98495.48;3636084;81;44452;-16
2021/01/18 22:12:42;;;;;;;6.53;4.67;;;;;;;1.51;100.00;98505.65;3689284;80;43354;-16
2021/01/18 22:17:50;;;;;;;10.00;5.97;;;;;;;1.57;100.00;98487.96;3697799;79;44075;-16
2021/01/18 22:22:56;;;;;;;8.40;4.93;;;;;;;1.63;100.00;98497.33;3664474;78;542567;-16
2021/01/18 22:28:03;;;;;;;8.10;4.70;;;;;;;1.64;100.00;98481.77;3642460;80;44057;-16
2021/01/18 22:33:09;;;;;;;6.73;3.80;;;;;;;1.69;100.00;98486.30;3665670;80;43395;-16
2021/01/18 22:38:15;;;;;;;6.00;4.43;;;;;;;1.65;100.00;98501.57;3698126;80;43401;-16
2021/01/18 22:43:22;;;;;;;7.70;4.40;;;;;;;1.67;100.00;98493.52;3664925;80;44112;-16
2021/01/18 22:48:29;;;;;;;7.67;3.83;;;;;;;1.72;100.00;98508.66;3679956;80;43491;-16
2021/01/18 22:53:35;;;;;;;6.50;3.60;;;;;;;1.69;100.00;98499.59;3719233;79;43405;-16
2021/01/18 22:58:41;;;;;;;6.87;3.90;;;;;;;1.69;100.00;98502.24;3514056;83;44027;-16
2021/01/18 23:03:47;;;;;;;6.87;3.97;;;;;;;1.73;100.00;98491.77;3660425;80;43923;-17
2021/01/18 23:08:53;;;;;;;7.83;4.50;;;;;;;1.74;100.00;98496.12;3692478;80;44106;-16
2021/01/18 23:13:59;;;;;;;6.10;4.20;;;;;;;1.75;100.00;98494.34;3677336;80;44058;-16
2021/01/18 23:19:08;;;;;;;5.47;4.07;;;;;;;1.68;100.00;98492.08;3665001;80;43734;-16
2021/01/18 23:24:15;;;;;;;6.93;3.83;;;;;;;1.70;100.00;98489.34;3633982;80;43715;-17
2021/01/18 23:29:21;;;;;;;8.67;4.37;;;;;;;1.69;100.00;98483.65;3644357;81;43396;-17
2021/01/18 23:34:26;;;;;;;5.27;3.77;;;;;;;1.72;100.00;98486.08;3623997;81;44126;-17
2021/01/18 23:39:33;;;;;;;6.97;4.23;;;;;;;1.76;100.00;98491.56;3605371;81;44067;-16
2021/01/18 23:44:38;;;;;;;6.60;3.83;;;;;;;1.70;100.00;98477.39;3636872;81;42754;-16
2021/01/18 23:49:44;;;;;;;5.33;4.00;;;;;;;1.76;100.00;98468.16;3620255;81;44063;-16